sensor_id;sensor_type;location;lat;lon;timestamp;P1;durP1;ratioP1;P2;durP2;ratioP2
11791;SDS011;5953;52.372;9.918;2023-07-16T00:00:54;2.80;;;1.77;;
11791;SDS011;5953;52.372;9.918;2023-07-16T00:03:27;3.35;;;1.80;;
11791;SDS011;5953;52.372;9.918;2023-07-16T00:05:55;2.27;;;1.80;;
11791;SDS011;5953;52.372;9.918;2023-07-16T00:08:23;2.13;;;1.70;;
11791;SDS011;5953;52.372;9.918;2023-07-16T00:10:50;2.70;;;1.75;;
11791;SDS011;5953;52.372;9.918;2023-07-16T00:13:18;3.03;;;1.70;;
11791;SDS011;5953;52.372;9.918;2023-07-16T00:15:46;2.40;;;2.00;;
11791;SDS011;5953;52.372;9.918;2023-07-16T00:18:15;2.70;;;1.73;;
11791;SDS011;5953;52.372;9.918;2023-07-16T00:20:43;1.87;;;1.63;;
11791;SDS011;5953;52.372;9.918;2023-07-16T00:23:12;2.75;;;2.05;;
11791;SDS011;5953;52.372;9.918;2023-07-16T00:25:39;2.77;;;1.67;;
11791;SDS011;5953;52.372;9.918;2023-07-16T00:28:07;2.80;;;1.60;;
11791;SDS011;5953;52.372;9.918;2023-07-16T00:30:35;2.95;;;1.55;;
11791;SDS011;5953;52.372;9.918;2023-07-16T00:33:03;2.35;;;1.50;;
11791;SDS011;5953;52.372;9.918;2023-07-16T00:35:32;2.40;;;1.47;;
11791;SDS011;5953;52.372;9.918;2023-07-16T00:38:00;1.65;;;1.30;;
11791;SDS011;5953;52.372;9.918;2023-07-16T00:40:28;4.47;;;1.90;;
11791;SDS011;5953;52.372;9.918;2023-07-16T00:42:56;2.97;;;1.73;;
11791;SDS011;5953;52.372;9.918;2023-07-16T00:45:23;2.60;;;1.52;;
11791;SDS011;5953;52.372;9.918;2023-07-16T00:47:51;1.73;;;1.60;;
11791;SDS011;5953;52.372;9.918;2023-07-16T00:50:19;3.27;;;2.13;;
11791;SDS011;5953;52.372;9.918;2023-07-16T00:52:49;3.17;;;1.40;;
11791;SDS011;5953;52.372;9.918;2023-07-16T00:55:17;2.73;;;1.70;;
11791;SDS011;5953;52.372;9.918;2023-07-16T00:57:46;2.17;;;1.60;;
11791;SDS011;5953;52.372;9.918;2023-07-16T01:00:14;3.00;;;1.50;;
11791;SDS011;5953;52.372;9.918;2023-07-16T01:02:43;5.80;;;2.07;;
11791;SDS011;5953;52.372;9.918;2023-07-16T01:05:10;3.47;;;1.60;;
11791;SDS011;5953;52.372;9.918;2023-07-16T01:07:38;3.80;;;1.83;;
11791;SDS011;5953;52.372;9.918;2023-07-16T01:10:15;3.88;;;1.67;;
11791;SDS011;5953;52.372;9.918;2023-07-16T01:12:43;2.80;;;1.67;;
11791;SDS011;5953;52.372;9.918;2023-07-16T01:15:13;4.30;;;1.85;;
11791;SDS011;5953;52.372;9.918;2023-07-16T01:17:40;2.77;;;2.07;;
11791;SDS011;5953;52.372;9.918;2023-07-16T01:20:09;5.43;;;1.73;;
11791;SDS011;5953;52.372;9.918;2023-07-16T01:22:44;2.88;;;1.70;;
11791;SDS011;5953;52.372;9.918;2023-07-16T01:25:40;4.38;;;2.15;;
11791;SDS011;5953;52.372;9.918;2023-07-16T01:28:32;2.50;;;1.37;;
11791;SDS011;5953;52.372;9.918;2023-07-16T01:31:17;2.70;;;1.90;;
11791;SDS011;5953;52.372;9.918;2023-07-16T01:33:48;2.73;;;1.77;;
11791;SDS011;5953;52.372;9.918;2023-07-16T01:36:17;2.00;;;1.52;;
11791;SDS011;5953;52.372;9.918;2023-07-16T01:38:46;2.33;;;1.52;;
11791;SDS011;5953;52.372;9.918;2023-07-16T01:41:14;3.45;;;1.80;;
11791;SDS011;5953;52.372;9.918;2023-07-16T01:43:42;3.30;;;1.98;;
11791;SDS011;5953;52.372;9.918;2023-07-16T01:46:10;2.40;;;1.80;;
11791;SDS011;5953;52.372;9.918;2023-07-16T01:48:39;3.70;;;1.77;;
11791;SDS011;5953;52.372;9.918;2023-07-16T01:51:07;2.07;;;1.77;;
11791;SDS011;5953;52.372;9.918;2023-07-16T01:53:35;1.93;;;1.67;;
11791;SDS011;5953;52.372;9.918;2023-07-16T01:56:03;2.67;;;1.87;;
11791;SDS011;5953;52.372;9.918;2023-07-16T01:58:31;2.43;;;1.87;;
11791;SDS011;5953;52.372;9.918;2023-07-16T02:00:59;2.97;;;1.70;;
11791;SDS011;5953;52.372;9.918;2023-07-16T02:03:27;3.43;;;1.43;;
11791;SDS011;5953;52.372;9.918;2023-07-16T02:05:56;2.70;;;1.80;;
11791;SDS011;5953;52.372;9.918;2023-07-16T02:08:24;1.60;;;1.40;;
11791;SDS011;5953;52.372;9.918;2023-07-16T02:10:52;3.03;;;1.63;;
11791;SDS011;5953;52.372;9.918;2023-07-16T02:13:20;1.77;;;1.60;;
11791;SDS011;5953;52.372;9.918;2023-07-16T02:15:48;1.73;;;1.50;;
11791;SDS011;5953;52.372;9.918;2023-07-16T02:18:16;2.03;;;1.83;;
11791;SDS011;5953;52.372;9.918;2023-07-16T02:20:44;4.60;;;1.80;;
11791;SDS011;5953;52.372;9.918;2023-07-16T02:23:17;2.20;;;1.80;;
11791;SDS011;5953;52.372;9.918;2023-07-16T02:25:52;2.27;;;1.73;;
11791;SDS011;5953;52.372;9.918;2023-07-16T02:28:22;2.57;;;1.67;;
11791;SDS011;5953;52.372;9.918;2023-07-16T02:30:55;1.73;;;1.48;;
11791;SDS011;5953;52.372;9.918;2023-07-16T02:33:26;3.93;;;1.80;;
11791;SDS011;5953;52.372;9.918;2023-07-16T02:35:58;3.00;;;1.80;;
11791;SDS011;5953;52.372;9.918;2023-07-16T02:38:30;3.47;;;2.10;;
11791;SDS011;5953;52.372;9.918;2023-07-16T02:41:22;2.70;;;1.23;;
11791;SDS011;5953;52.372;9.918;2023-07-16T02:43:58;2.70;;;1.80;;
11791;SDS011;5953;52.372;9.918;2023-07-16T02:46:37;3.17;;;1.70;;
11791;SDS011;5953;52.372;9.918;2023-07-16T02:49:05;2.67;;;1.90;;
11791;SDS011;5953;52.372;9.918;2023-07-16T02:55:10;2.60;;;1.50;;
11791;SDS011;5953;52.372;9.918;2023-07-16T02:58:19;2.23;;;1.60;;
11791;SDS011;5953;52.372;9.918;2023-07-16T03:01:42;3.43;;;1.70;;
11791;SDS011;5953;52.372;9.918;2023-07-16T03:04:42;1.67;;;1.57;;
11791;SDS011;5953;52.372;9.918;2023-07-16T03:07:19;1.60;;;1.50;;
11791;SDS011;5953;52.372;9.918;2023-07-16T03:10:37;2.73;;;1.80;;
11791;SDS011;5953;52.372;9.918;2023-07-16T03:13:11;3.63;;;1.93;;
11791;SDS011;5953;52.372;9.918;2023-07-16T03:15:47;2.20;;;1.80;;
11791;SDS011;5953;52.372;9.918;2023-07-16T03:18:32;1.40;;;1.30;;
11791;SDS011;5953;52.372;9.918;2023-07-16T03:21:19;3.07;;;2.30;;
11791;SDS011;5953;52.372;9.918;2023-07-16T03:23:47;2.87;;;1.60;;
11791;SDS011;5953;52.372;9.918;2023-07-16T03:26:16;3.03;;;2.03;;
11791;SDS011;5953;52.372;9.918;2023-07-16T03:28:44;3.30;;;1.60;;
11791;SDS011;5953;52.372;9.918;2023-07-16T03:31:12;1.83;;;1.60;;
11791;SDS011;5953;52.372;9.918;2023-07-16T03:33:40;2.50;;;1.50;;
11791;SDS011;5953;52.372;9.918;2023-07-16T03:36:08;2.90;;;1.93;;
11791;SDS011;5953;52.372;9.918;2023-07-16T03:38:35;2.17;;;1.97;;
11791;SDS011;5953;52.372;9.918;2023-07-16T03:41:03;2.80;;;1.80;;
11791;SDS011;5953;52.372;9.918;2023-07-16T03:43:32;3.17;;;1.90;;
11791;SDS011;5953;52.372;9.918;2023-07-16T03:46:00;2.33;;;1.70;;
11791;SDS011;5953;52.372;9.918;2023-07-16T03:48:28;2.50;;;1.90;;
11791;SDS011;5953;52.372;9.918;2023-07-16T03:50:56;3.43;;;1.90;;
11791;SDS011;5953;52.372;9.918;2023-07-16T03:53:24;4.33;;;2.00;;
11791;SDS011;5953;52.372;9.918;2023-07-16T03:55:53;3.53;;;1.83;;
11791;SDS011;5953;52.372;9.918;2023-07-16T03:58:21;2.63;;;1.73;;
11791;SDS011;5953;52.372;9.918;2023-07-16T04:00:51;4.37;;;2.10;;
11791;SDS011;5953;52.372;9.918;2023-07-16T04:03:19;2.33;;;1.80;;
11791;SDS011;5953;52.372;9.918;2023-07-16T04:05:48;3.93;;;1.83;;
11791;SDS011;5953;52.372;9.918;2023-07-16T04:08:16;2.67;;;1.80;;
11791;SDS011;5953;52.372;9.918;2023-07-16T04:10:44;2.90;;;1.87;;
11791;SDS011;5953;52.372;9.918;2023-07-16T04:13:11;2.80;;;2.03;;
11791;SDS011;5953;52.372;9.918;2023-07-16T04:15:39;2.73;;;1.60;;
11791;SDS011;5953;52.372;9.918;2023-07-16T04:18:09;2.80;;;1.50;;
11791;SDS011;5953;52.372;9.918;2023-07-16T04:20:36;3.13;;;1.97;;
11791;SDS011;5953;52.372;9.918;2023-07-16T04:23:04;3.60;;;1.87;;
11791;SDS011;5953;52.372;9.918;2023-07-16T04:25:32;4.73;;;2.00;;
11791;SDS011;5953;52.372;9.918;2023-07-16T04:28:00;3.20;;;1.50;;
11791;SDS011;5953;52.372;9.918;2023-07-16T04:30:30;2.40;;;1.53;;
11791;SDS011;5953;52.372;9.918;2023-07-16T04:32:58;3.53;;;1.70;;
11791;SDS011;5953;52.372;9.918;2023-07-16T04:35:28;2.80;;;1.70;;
11791;SDS011;5953;52.372;9.918;2023-07-16T04:37:56;2.63;;;1.70;;
11791;SDS011;5953;52.372;9.918;2023-07-16T04:40:23;1.93;;;1.40;;
11791;SDS011;5953;52.372;9.918;2023-07-16T04:42:51;3.10;;;1.80;;
11791;SDS011;5953;52.372;9.918;2023-07-16T04:45:19;2.80;;;1.90;;
11791;SDS011;5953;52.372;9.918;2023-07-16T04:47:47;2.73;;;2.23;;
11791;SDS011;5953;52.372;9.918;2023-07-16T04:50:15;2.43;;;2.10;;
11791;SDS011;5953;52.372;9.918;2023-07-16T04:52:44;3.27;;;1.90;;
11791;SDS011;5953;52.372;9.918;2023-07-16T04:55:12;4.93;;;2.20;;
11791;SDS011;5953;52.372;9.918;2023-07-16T04:57:40;3.27;;;2.30;;
11791;SDS011;5953;52.372;9.918;2023-07-16T05:00:08;4.57;;;2.00;;
11791;SDS011;5953;52.372;9.918;2023-07-16T05:02:37;3.00;;;2.20;;
11791;SDS011;5953;52.372;9.918;2023-07-16T05:05:05;3.03;;;2.20;;
11791;SDS011;5953;52.372;9.918;2023-07-16T05:07:34;3.03;;;2.03;;
11791;SDS011;5953;52.372;9.918;2023-07-16T05:10:03;2.80;;;2.00;;
11791;SDS011;5953;52.372;9.918;2023-07-16T05:12:32;3.50;;;2.20;;
11791;SDS011;5953;52.372;9.918;2023-07-16T05:15:05;3.93;;;2.00;;
11791;SDS011;5953;52.372;9.918;2023-07-16T05:17:34;4.33;;;2.10;;
11791;SDS011;5953;52.372;9.918;2023-07-16T05:20:02;5.30;;;2.17;;
11791;SDS011;5953;52.372;9.918;2023-07-16T05:22:30;3.13;;;1.43;;
11791;SDS011;5953;52.372;9.918;2023-07-16T05:24:58;3.73;;;1.87;;
11791;SDS011;5953;52.372;9.918;2023-07-16T05:27:28;5.00;;;2.40;;
11791;SDS011;5953;52.372;9.918;2023-07-16T05:29:56;4.63;;;1.83;;
11791;SDS011;5953;52.372;9.918;2023-07-16T05:32:24;5.10;;;2.13;;
11791;SDS011;5953;52.372;9.918;2023-07-16T05:34:52;4.10;;;1.87;;
11791;SDS011;5953;52.372;9.918;2023-07-16T05:37:20;3.23;;;1.90;;
11791;SDS011;5953;52.372;9.918;2023-07-16T05:39:48;3.07;;;1.80;;
11791;SDS011;5953;52.372;9.918;2023-07-16T05:42:15;2.47;;;1.60;;
11791;SDS011;5953;52.372;9.918;2023-07-16T05:44:45;3.47;;;1.60;;
11791;SDS011;5953;52.372;9.918;2023-07-16T05:47:14;2.03;;;1.67;;
11791;SDS011;5953;52.372;9.918;2023-07-16T05:49:42;3.63;;;1.60;;
11791;SDS011;5953;52.372;9.918;2023-07-16T05:52:10;3.40;;;1.83;;
11791;SDS011;5953;52.372;9.918;2023-07-16T05:54:38;4.90;;;1.80;;
11791;SDS011;5953;52.372;9.918;2023-07-16T05:57:06;3.40;;;2.20;;
11791;SDS011;5953;52.372;9.918;2023-07-16T05:59:34;3.67;;;1.73;;
11791;SDS011;5953;52.372;9.918;2023-07-16T06:02:05;2.40;;;1.70;;
11791;SDS011;5953;52.372;9.918;2023-07-16T06:04:37;3.73;;;1.90;;
11791;SDS011;5953;52.372;9.918;2023-07-16T06:07:12;4.43;;;2.10;;
11791;SDS011;5953;52.372;9.918;2023-07-16T06:09:42;5.63;;;2.33;;
11791;SDS011;5953;52.372;9.918;2023-07-16T06:12:18;3.07;;;1.83;;
11791;SDS011;5953;52.372;9.918;2023-07-16T06:15:14;3.15;;;1.95;;
11791;SDS011;5953;52.372;9.918;2023-07-16T06:17:46;2.50;;;2.00;;
11791;SDS011;5953;52.372;9.918;2023-07-16T06:20:17;2.88;;;1.80;;
11791;SDS011;5953;52.372;9.918;2023-07-16T06:22:51;4.47;;;1.73;;
11791;SDS011;5953;52.372;9.918;2023-07-16T06:26:15;3.83;;;1.73;;
11791;SDS011;5953;52.372;9.918;2023-07-16T06:31:38;3.23;;;1.93;;
11791;SDS011;5953;52.372;9.918;2023-07-16T06:34:23;3.53;;;2.13;;
11791;SDS011;5953;52.372;9.918;2023-07-16T06:37:22;4.15;;;2.17;;
11791;SDS011;5953;52.372;9.918;2023-07-16T06:40:57;3.38;;;2.00;;
11791;SDS011;5953;52.372;9.918;2023-07-16T06:43:54;5.10;;;2.20;;
11791;SDS011;5953;52.372;9.918;2023-07-16T06:47:09;5.10;;;2.40;;
11791;SDS011;5953;52.372;9.918;2023-07-16T06:53:19;4.85;;;2.20;;
11791;SDS011;5953;52.372;9.918;2023-07-16T06:56:27;4.75;;;1.83;;
11791;SDS011;5953;52.372;9.918;2023-07-16T06:59:52;3.60;;;2.10;;
11791;SDS011;5953;52.372;9.918;2023-07-16T07:03:01;4.15;;;1.85;;
11791;SDS011;5953;52.372;9.918;2023-07-16T07:05:56;7.03;;;2.30;;
11791;SDS011;5953;52.372;9.918;2023-07-16T07:08:29;4.97;;;2.00;;
11791;SDS011;5953;52.372;9.918;2023-07-16T07:12:29;2.78;;;1.85;;
11791;SDS011;5953;52.372;9.918;2023-07-16T07:15:02;2.15;;;1.88;;
11791;SDS011;5953;52.372;9.918;2023-07-16T07:17:50;3.40;;;2.10;;
11791;SDS011;5953;52.372;9.918;2023-07-16T07:24:17;4.45;;;2.05;;
11791;SDS011;5953;52.372;9.918;2023-07-16T07:27:05;2.83;;;2.08;;
11791;SDS011;5953;52.372;9.918;2023-07-16T07:30:40;3.45;;;2.13;;
11791;SDS011;5953;52.372;9.918;2023-07-16T07:34:01;4.00;;;2.10;;
11791;SDS011;5953;52.372;9.918;2023-07-16T07:39:51;5.97;;;1.98;;
11791;SDS011;5953;52.372;9.918;2023-07-16T07:43:21;2.60;;;1.88;;
11791;SDS011;5953;52.372;9.918;2023-07-16T07:47:09;5.32;;;2.88;;
11791;SDS011;5953;52.372;9.918;2023-07-16T07:50:13;6.40;;;2.78;;
11791;SDS011;5953;52.372;9.918;2023-07-16T07:52:55;4.80;;;2.70;;
11791;SDS011;5953;52.372;9.918;2023-07-16T07:55:30;6.20;;;2.45;;
11791;SDS011;5953;52.372;9.918;2023-07-16T07:58:04;3.88;;;2.42;;
11791;SDS011;5953;52.372;9.918;2023-07-16T08:00:32;5.13;;;2.70;;
11791;SDS011;5953;52.372;9.918;2023-07-16T08:03:01;4.53;;;2.22;;
11791;SDS011;5953;52.372;9.918;2023-07-16T08:05:32;4.30;;;2.58;;
11791;SDS011;5953;52.372;9.918;2023-07-16T08:08:02;4.85;;;2.75;;
11791;SDS011;5953;52.372;9.918;2023-07-16T08:14:15;3.90;;;2.75;;
11791;SDS011;5953;52.372;9.918;2023-07-16T08:17:02;5.65;;;2.58;;
11791;SDS011;5953;52.372;9.918;2023-07-16T08:19:58;4.60;;;2.45;;
11791;SDS011;5953;52.372;9.918;2023-07-16T08:22:39;8.25;;;2.58;;
11791;SDS011;5953;52.372;9.918;2023-07-16T08:25:09;4.20;;;2.38;;
11791;SDS011;5953;52.372;9.918;2023-07-16T08:27:47;5.85;;;2.78;;
11791;SDS011;5953;52.372;9.918;2023-07-16T08:30:21;5.25;;;2.42;;
11791;SDS011;5953;52.372;9.918;2023-07-16T08:33:02;4.43;;;2.88;;
11791;SDS011;5953;52.372;9.918;2023-07-16T08:36:05;5.13;;;2.50;;
11791;SDS011;5953;52.372;9.918;2023-07-16T08:38:43;5.82;;;2.67;;
11791;SDS011;5953;52.372;9.918;2023-07-16T08:41:11;6.78;;;2.72;;
11791;SDS011;5953;52.372;9.918;2023-07-16T08:44:05;3.80;;;2.42;;
11791;SDS011;5953;52.372;9.918;2023-07-16T08:46:39;5.28;;;2.47;;
11791;SDS011;5953;52.372;9.918;2023-07-16T08:49:12;5.05;;;2.13;;
11791;SDS011;5953;52.372;9.918;2023-07-16T08:51:40;9.25;;;3.10;;
11791;SDS011;5953;52.372;9.918;2023-07-16T08:54:15;6.68;;;2.95;;
11791;SDS011;5953;52.372;9.918;2023-07-16T08:56:44;3.38;;;2.65;;
11791;SDS011;5953;52.372;9.918;2023-07-16T08:59:14;4.25;;;2.70;;
11791;SDS011;5953;52.372;9.918;2023-07-16T09:01:42;7.32;;;2.72;;
11791;SDS011;5953;52.372;9.918;2023-07-16T09:04:13;6.60;;;2.58;;
11791;SDS011;5953;52.372;9.918;2023-07-16T09:06:48;3.65;;;2.50;;
11791;SDS011;5953;52.372;9.918;2023-07-16T09:09:22;4.25;;;2.72;;
11791;SDS011;5953;52.372;9.918;2023-07-16T09:12:01;5.38;;;3.08;;
11791;SDS011;5953;52.372;9.918;2023-07-16T09:14:33;3.70;;;2.25;;
11791;SDS011;5953;52.372;9.918;2023-07-16T09:17:22;4.47;;;2.47;;
11791;SDS011;5953;52.372;9.918;2023-07-16T09:19:51;5.30;;;2.25;;
11791;SDS011;5953;52.372;9.918;2023-07-16T09:22:19;5.72;;;2.40;;
11791;SDS011;5953;52.372;9.918;2023-07-16T09:24:49;4.00;;;2.50;;
11791;SDS011;5953;52.372;9.918;2023-07-16T09:27:27;3.70;;;2.35;;
11791;SDS011;5953;52.372;9.918;2023-07-16T09:29:57;5.30;;;2.58;;
11791;SDS011;5953;52.372;9.918;2023-07-16T09:32:34;4.88;;;2.60;;
11791;SDS011;5953;52.372;9.918;2023-07-16T09:35:06;4.82;;;2.67;;
11791;SDS011;5953;52.372;9.918;2023-07-16T09:41:03;5.43;;;2.25;;
11791;SDS011;5953;52.372;9.918;2023-07-16T09:43:35;4.20;;;2.67;;
11791;SDS011;5953;52.372;9.918;2023-07-16T09:49:27;6.85;;;2.30;;
11791;SDS011;5953;52.372;9.918;2023-07-16T09:51:58;6.45;;;2.50;;
11791;SDS011;5953;52.372;9.918;2023-07-16T09:54:56;4.03;;;2.63;;
11791;SDS011;5953;52.372;9.918;2023-07-16T09:57:43;6.03;;;2.42;;
11791;SDS011;5953;52.372;9.918;2023-07-16T10:00:14;3.08;;;2.00;;
11791;SDS011;5953;52.372;9.918;2023-07-16T10:03:07;3.85;;;2.05;;
11791;SDS011;5953;52.372;9.918;2023-07-16T10:06:29;3.45;;;2.15;;
11791;SDS011;5953;52.372;9.918;2023-07-16T10:09:40;5.80;;;2.47;;
11791;SDS011;5953;52.372;9.918;2023-07-16T10:12:31;4.93;;;2.50;;
11791;SDS011;5953;52.372;9.918;2023-07-16T10:15:11;8.23;;;2.72;;
11791;SDS011;5953;52.372;9.918;2023-07-16T10:17:49;5.80;;;2.58;;
11791;SDS011;5953;52.372;9.918;2023-07-16T10:20:27;3.17;;;2.13;;
11791;SDS011;5953;52.372;9.918;2023-07-16T10:22:58;4.65;;;2.42;;
11791;SDS011;5953;52.372;9.918;2023-07-16T10:25:37;3.63;;;2.58;;
11791;SDS011;5953;52.372;9.918;2023-07-16T10:28:05;4.38;;;2.25;;
11791;SDS011;5953;52.372;9.918;2023-07-16T10:30:33;5.13;;;2.25;;
11791;SDS011;5953;52.372;9.918;2023-07-16T10:33:02;6.25;;;2.17;;
11791;SDS011;5953;52.372;9.918;2023-07-16T10:35:34;2.83;;;2.15;;
11791;SDS011;5953;52.372;9.918;2023-07-16T10:38:04;3.10;;;2.30;;
11791;SDS011;5953;52.372;9.918;2023-07-16T10:40:32;2.72;;;2.15;;
11791;SDS011;5953;52.372;9.918;2023-07-16T10:43:01;5.47;;;2.20;;
11791;SDS011;5953;52.372;9.918;2023-07-16T10:45:30;4.10;;;2.33;;
11791;SDS011;5953;52.372;9.918;2023-07-16T10:48:01;5.35;;;2.30;;
11791;SDS011;5953;52.372;9.918;2023-07-16T10:50:31;3.92;;;2.35;;
11791;SDS011;5953;52.372;9.918;2023-07-16T10:52:59;4.55;;;2.33;;
11791;SDS011;5953;52.372;9.918;2023-07-16T10:55:29;5.40;;;2.33;;
11791;SDS011;5953;52.372;9.918;2023-07-16T10:58:04;4.18;;;2.53;;
11791;SDS011;5953;52.372;9.918;2023-07-16T11:00:36;3.92;;;2.28;;
11791;SDS011;5953;52.372;9.918;2023-07-16T11:03:04;3.95;;;2.88;;
11791;SDS011;5953;52.372;9.918;2023-07-16T11:05:33;2.88;;;2.17;;
11791;SDS011;5953;52.372;9.918;2023-07-16T11:08:01;4.15;;;2.80;;
11791;SDS011;5953;52.372;9.918;2023-07-16T11:10:30;4.00;;;2.70;;
11791;SDS011;5953;52.372;9.918;2023-07-16T11:12:58;4.63;;;2.50;;
11791;SDS011;5953;52.372;9.918;2023-07-16T11:15:31;4.93;;;2.60;;
11791;SDS011;5953;52.372;9.918;2023-07-16T11:18:00;5.97;;;2.92;;
11791;SDS011;5953;52.372;9.918;2023-07-16T11:20:29;4.30;;;2.65;;
11791;SDS011;5953;52.372;9.918;2023-07-16T11:23:01;3.50;;;2.67;;
11791;SDS011;5953;52.372;9.918;2023-07-16T11:25:30;4.65;;;2.67;;
11791;SDS011;5953;52.372;9.918;2023-07-16T11:28:00;3.38;;;2.75;;
11791;SDS011;5953;52.372;9.918;2023-07-16T11:30:28;4.13;;;2.30;;
11791;SDS011;5953;52.372;9.918;2023-07-16T11:32:57;4.22;;;2.60;;
11791;SDS011;5953;52.372;9.918;2023-07-16T11:35:26;5.00;;;3.17;;
11791;SDS011;5953;52.372;9.918;2023-07-16T11:37:54;4.43;;;3.30;;
11791;SDS011;5953;52.372;9.918;2023-07-16T11:40:25;3.05;;;2.60;;
11791;SDS011;5953;52.372;9.918;2023-07-16T11:43:32;7.10;;;3.13;;
11791;SDS011;5953;52.372;9.918;2023-07-16T11:46:01;5.22;;;3.40;;
11791;SDS011;5953;52.372;9.918;2023-07-16T11:48:33;4.03;;;2.85;;
11791;SDS011;5953;52.372;9.918;2023-07-16T11:51:01;3.92;;;3.03;;
11791;SDS011;5953;52.372;9.918;2023-07-16T11:53:29;5.28;;;2.80;;
11791;SDS011;5953;52.372;9.918;2023-07-16T11:56:07;3.83;;;2.92;;
11791;SDS011;5953;52.372;9.918;2023-07-16T11:58:57;5.43;;;3.17;;
11791;SDS011;5953;52.372;9.918;2023-07-16T12:01:33;4.43;;;3.00;;
11791;SDS011;5953;52.372;9.918;2023-07-16T12:04:01;3.45;;;3.03;;
11791;SDS011;5953;52.372;9.918;2023-07-16T12:06:51;3.40;;;2.63;;
11791;SDS011;5953;52.372;9.918;2023-07-16T12:09:31;6.90;;;3.15;;
11791;SDS011;5953;52.372;9.918;2023-07-16T12:12:06;4.72;;;2.65;;
11791;SDS011;5953;52.372;9.918;2023-07-16T12:14:36;4.60;;;2.70;;
11791;SDS011;5953;52.372;9.918;2023-07-16T12:17:04;3.10;;;2.88;;
11791;SDS011;5953;52.372;9.918;2023-07-16T12:19:49;4.78;;;3.65;;
11791;SDS011;5953;52.372;9.918;2023-07-16T12:22:36;5.22;;;4.47;;
11791;SDS011;5953;52.372;9.918;2023-07-16T12:25:04;6.88;;;2.95;;
11791;SDS011;5953;52.372;9.918;2023-07-16T12:27:33;6.88;;;3.40;;
11791;SDS011;5953;52.372;9.918;2023-07-16T12:30:04;6.97;;;3.05;;
11791;SDS011;5953;52.372;9.918;2023-07-16T12:32:37;7.35;;;2.90;;
11791;SDS011;5953;52.372;9.918;2023-07-16T12:35:31;5.03;;;3.15;;
11791;SDS011;5953;52.372;9.918;2023-07-16T12:38:02;3.65;;;2.83;;
11791;SDS011;5953;52.372;9.918;2023-07-16T12:40:30;5.97;;;2.88;;
11791;SDS011;5953;52.372;9.918;2023-07-16T12:43:05;4.60;;;2.80;;
11791;SDS011;5953;52.372;9.918;2023-07-16T12:45:36;4.15;;;2.50;;
11791;SDS011;5953;52.372;9.918;2023-07-16T12:48:06;4.50;;;2.50;;
11791;SDS011;5953;52.372;9.918;2023-07-16T12:50:46;4.00;;;3.00;;
11791;SDS011;5953;52.372;9.918;2023-07-16T12:57:11;4.80;;;2.53;;
11791;SDS011;5953;52.372;9.918;2023-07-16T12:59:53;4.15;;;2.72;;
11791;SDS011;5953;52.372;9.918;2023-07-16T13:05:14;3.15;;;2.55;;
11791;SDS011;5953;52.372;9.918;2023-07-16T13:07:59;3.85;;;2.42;;
11791;SDS011;5953;52.372;9.918;2023-07-16T13:11:03;5.43;;;2.35;;
11791;SDS011;5953;52.372;9.918;2023-07-16T13:13:40;4.40;;;2.47;;
11791;SDS011;5953;52.372;9.918;2023-07-16T13:16:23;3.50;;;2.55;;
11791;SDS011;5953;52.372;9.918;2023-07-16T13:18:54;3.28;;;2.50;;
11791;SDS011;5953;52.372;9.918;2023-07-16T13:21:35;4.00;;;3.00;;
11791;SDS011;5953;52.372;9.918;2023-07-16T13:24:40;5.28;;;2.67;;
11791;SDS011;5953;52.372;9.918;2023-07-16T13:30:04;2.53;;;2.33;;
11791;SDS011;5953;52.372;9.918;2023-07-16T13:32:37;4.88;;;2.25;;
11791;SDS011;5953;52.372;9.918;2023-07-16T13:35:15;3.28;;;2.50;;
11791;SDS011;5953;52.372;9.918;2023-07-16T13:37:46;4.35;;;2.50;;
11791;SDS011;5953;52.372;9.918;2023-07-16T13:40:13;3.45;;;2.22;;
11791;SDS011;5953;52.372;9.918;2023-07-16T13:42:41;3.17;;;2.10;;
11791;SDS011;5953;52.372;9.918;2023-07-16T13:45:09;2.60;;;2.40;;
11791;SDS011;5953;52.372;9.918;2023-07-16T13:47:37;3.10;;;2.50;;
11791;SDS011;5953;52.372;9.918;2023-07-16T13:50:09;4.20;;;3.00;;
11791;SDS011;5953;52.372;9.918;2023-07-16T13:52:42;2.90;;;2.55;;
11791;SDS011;5953;52.372;9.918;2023-07-16T13:55:17;3.60;;;2.78;;
11791;SDS011;5953;52.372;9.918;2023-07-16T13:57:48;3.47;;;2.45;;
11791;SDS011;5953;52.372;9.918;2023-07-16T14:00:19;5.75;;;2.60;;
11791;SDS011;5953;52.372;9.918;2023-07-16T14:02:48;3.42;;;2.80;;
11791;SDS011;5953;52.372;9.918;2023-07-16T14:05:27;3.03;;;2.20;;
11791;SDS011;5953;52.372;9.918;2023-07-16T14:08:19;3.47;;;2.67;;
11791;SDS011;5953;52.372;9.918;2023-07-16T14:11:15;3.88;;;2.53;;
11791;SDS011;5953;52.372;9.918;2023-07-16T14:14:05;5.63;;;2.95;;
11791;SDS011;5953;52.372;9.918;2023-07-16T14:16:33;4.38;;;2.72;;
11791;SDS011;5953;52.372;9.918;2023-07-16T14:19:04;4.20;;;2.70;;
11791;SDS011;5953;52.372;9.918;2023-07-16T14:22:27;5.65;;;3.17;;
11791;SDS011;5953;52.372;9.918;2023-07-16T14:29:13;3.80;;;3.10;;
11791;SDS011;5953;52.372;9.918;2023-07-16T14:32:04;6.32;;;3.30;;
11791;SDS011;5953;52.372;9.918;2023-07-16T14:34:47;3.10;;;2.47;;
11791;SDS011;5953;52.372;9.918;2023-07-16T14:37:24;4.38;;;2.75;;
11791;SDS011;5953;52.372;9.918;2023-07-16T14:39:53;3.72;;;2.72;;
11791;SDS011;5953;52.372;9.918;2023-07-16T14:42:51;3.33;;;2.63;;
11791;SDS011;5953;52.372;9.918;2023-07-16T14:45:28;5.13;;;3.17;;
11791;SDS011;5953;52.372;9.918;2023-07-16T14:47:55;3.95;;;2.90;;
11791;SDS011;5953;52.372;9.918;2023-07-16T14:50:23;3.88;;;2.97;;
11791;SDS011;5953;52.372;9.918;2023-07-16T14:52:52;3.28;;;2.92;;
11791;SDS011;5953;52.372;9.918;2023-07-16T14:55:33;4.47;;;3.03;;
11791;SDS011;5953;52.372;9.918;2023-07-16T14:58:15;4.38;;;3.35;;
11791;SDS011;5953;52.372;9.918;2023-07-16T15:00:49;3.58;;;3.05;;
11791;SDS011;5953;52.372;9.918;2023-07-16T15:06:42;5.47;;;3.17;;
11791;SDS011;5953;52.372;9.918;2023-07-16T15:09:44;4.03;;;3.10;;
11791;SDS011;5953;52.372;9.918;2023-07-16T15:12:18;5.07;;;3.03;;
11791;SDS011;5953;52.372;9.918;2023-07-16T15:18:09;3.47;;;3.17;;
11791;SDS011;5953;52.372;9.918;2023-07-16T15:20:54;3.65;;;2.83;;
11791;SDS011;5953;52.372;9.918;2023-07-16T15:23:32;6.07;;;3.80;;
11791;SDS011;5953;52.372;9.918;2023-07-16T15:26:01;5.90;;;3.78;;
11791;SDS011;5953;52.372;9.918;2023-07-16T15:28:45;5.20;;;3.72;;
11791;SDS011;5953;52.372;9.918;2023-07-16T15:31:31;4.22;;;3.40;;
11791;SDS011;5953;52.372;9.918;2023-07-16T15:34:08;6.00;;;3.72;;
11791;SDS011;5953;52.372;9.918;2023-07-16T15:36:40;4.47;;;3.30;;
11791;SDS011;5953;52.372;9.918;2023-07-16T15:39:13;4.10;;;3.58;;
11791;SDS011;5953;52.372;9.918;2023-07-16T15:41:41;4.03;;;3.17;;
11791;SDS011;5953;52.372;9.918;2023-07-16T15:44:14;4.10;;;3.40;;
11791;SDS011;5953;52.372;9.918;2023-07-16T15:47:38;4.53;;;3.20;;
11791;SDS011;5953;52.372;9.918;2023-07-16T15:53:28;4.85;;;3.63;;
11791;SDS011;5953;52.372;9.918;2023-07-16T15:55:56;4.63;;;3.53;;
11791;SDS011;5953;52.372;9.918;2023-07-16T15:58:30;4.32;;;3.33;;
11791;SDS011;5953;52.372;9.918;2023-07-16T16:01:02;4.85;;;3.40;;
11791;SDS011;5953;52.372;9.918;2023-07-16T16:03:51;4.28;;;3.38;;
11791;SDS011;5953;52.372;9.918;2023-07-16T16:13:24;6.00;;;3.17;;
11791;SDS011;5953;52.372;9.918;2023-07-16T16:16:17;3.63;;;3.33;;
11791;SDS011;5953;52.372;9.918;2023-07-16T16:18:47;4.53;;;3.42;;
11791;SDS011;5953;52.372;9.918;2023-07-16T16:22:12;3.08;;;2.83;;
11791;SDS011;5953;52.372;9.918;2023-07-16T16:25:17;4.20;;;2.95;;
11791;SDS011;5953;52.372;9.918;2023-07-16T16:31:33;3.25;;;2.70;;
11791;SDS011;5953;52.372;9.918;2023-07-16T16:34:48;6.05;;;3.20;;
11791;SDS011;5953;52.372;9.918;2023-07-16T16:37:52;2.95;;;2.65;;
11791;SDS011;5953;52.372;9.918;2023-07-16T16:40:31;3.47;;;3.05;;
11791;SDS011;5953;52.372;9.918;2023-07-16T16:43:12;3.55;;;3.03;;
11791;SDS011;5953;52.372;9.918;2023-07-16T16:45:51;3.50;;;3.03;;
11791;SDS011;5953;52.372;9.918;2023-07-16T16:48:24;4.57;;;3.00;;
11791;SDS011;5953;52.372;9.918;2023-07-16T16:50:54;3.78;;;2.78;;
11791;SDS011;5953;52.372;9.918;2023-07-16T16:53:28;3.17;;;2.78;;
11791;SDS011;5953;52.372;9.918;2023-07-16T16:56:13;3.88;;;2.50;;
11791;SDS011;5953;52.372;9.918;2023-07-16T16:59:11;3.38;;;2.33;;